Aurora Australis — VNAA — position and weather

sailwx.info

Track history (hours):
 
Tides and Currents Weather Stations Pressure Air Temp Water Temp Dewpoint Dewpoint Depression Visibility Wind Speed Wind Dir Waves Ship Positions

Oceanographic research ship Aurora Australis (Australia)

Detailed information on ship capabilities available from University of Delaware's Ocean Information Center.

Last reported at 2014-Oct-25 12:00 UTC. Time now 2014-Oct-25 23:40 UTC.
Position S 49°36' E 132°30'.

Length 94.9 m; beam 20.3 m; draft 7.9 m.

Type: Cargo ship. MMSI: 503043000.

Wind from 350 at 24 knots

Barometer 1009.9 mb
Air temperature 8.3 ° C
Visibility: greater than 27.0 NM
Dewpoint 5.6 ° C
Water temperature 8.1 ° C

Date/timePositionNaut miles runAvg speedWind from/ knotsBaromVisibWave heightAir tempDewpointWater temp
2014-Oct-25 12:00S 49°36' E 132°30'30 9.8 350 / 241009.927.0 8.3 5.6 8.1
2014-Oct-25 09:00S 49°18' E 133°06'9010.0 350 / 181012.427.0 0.5 8.7 5.1 8.6
2014-Oct-25 00:00S 48°18' E 134°48'111 9.2 260 / 171016.127.0 5.0 8.1-0.0 8.8
2014-Oct-24 12:00S 47°12' E 137°00'27 9.1 250 / 191012.827.0 0.5 8.2 2.5 8.8
2014-Oct-24 09:00S 46°54' E 137°30'27 9.1 330 / 331010.027.0 0.5 7.6 2.7 8.9
2014-Oct-24 06:00S 46°36' E 138°00'19410.8 280 / 211005.1 2.2 0.510.2 9.8 9.7
2014-Oct-23 12:00S 45°06' E 142°06'21410.4 050 / 131022.127.0 0.5 9.9 6.412.3
2014-Oct-22 15:27S 43°46' E 146°45'23 7.9
2014-Oct-22 12:33S 43°37' E 147°14'14 9.4
2014-Oct-22 11:06S 43°26' E 147°24'610.4
2014-Oct-22 10:32S 43°20' E 147°27'1010.0
2014-Oct-22 09:32S 43°10' E 147°28'1110.8
2014-Oct-22 08:33S 43°00' E 147°23'8 7.7
2014-Oct-22 07:33S 42°53' E 147°20'0 0.0
2014-Oct-22 06:31S 42°53' E 147°20'0 0.0
2014-Oct-22 05:28S 42°53' E 147°20'0 0.0
2014-Oct-22 04:31S 42°53' E 147°20'0 0.0
2014-Oct-22 03:31S 42°53' E 147°20'0 0.0
2014-Oct-22 02:31S 42°53' E 147°20'0 0.0
2014-Oct-22 01:31S 42°53' E 147°20'0 0.0
2014-Oct-22 00:31S 42°53' E 147°20'0 0.0
2014-Oct-21 23:31S 42°53' E 147°20'2 2.3
2014-Oct-21 22:33S 42°51' E 147°20'0 0.0
2014-Oct-21 21:33S 42°51' E 147°20'0 0.0
2014-Oct-21 20:33S 42°51' E 147°20'0 0.0
2014-Oct-21 19:33S 42°51' E 147°20'0 0.0
2014-Oct-21 18:33S 42°51' E 147°20'0 0.0
2014-Oct-21 17:33S 42°51' E 147°20'0 0.0
2014-Oct-21 16:33S 42°51' E 147°20'0 0.0
2014-Oct-21 15:33S 42°51' E 147°20'0 0.0
2014-Oct-21 14:33S 42°51' E 147°20'0 0.0
2014-Oct-21 13:33S 42°51' E 147°20'0 0.0
2014-Oct-21 12:33S 42°51' E 147°20'0 0.0
2014-Oct-21 11:33S 42°51' E 147°20'0 0.0
2014-Oct-21 10:33S 42°51' E 147°20'0 0.0
2014-Oct-21 09:33S 42°51' E 147°20'0 0.0
2014-Oct-21 08:29S 42°51' E 147°20'2 2.2
2014-Oct-21 07:32S 42°53' E 147°21'0 0.1
2014-Oct-21 06:32S 42°53' E 147°20'0 0.0
2014-Oct-21 05:32S 42°53' E 147°20'0 0.0
2014-Oct-21 04:32S 42°53' E 147°20'0 0.0
2014-Oct-21 03:32S 42°53' E 147°20'0 0.0
2014-Oct-21 02:32S 42°53' E 147°20'0 0.0
2014-Oct-21 01:32S 42°53' E 147°20'0 0.0
2014-Oct-21 00:32S 42°53' E 147°20'0 0.0
2014-Oct-20 23:31S 42°53' E 147°20'0 0.0
2014-Oct-20 22:32S 42°53' E 147°20'0 0.0
2014-Oct-20 21:32S 42°53' E 147°20'0 0.0
2014-Oct-20 20:32S 42°53' E 147°20'0 0.0
2014-Oct-20 19:26S 42°53' E 147°20'0 0.0
2014-Oct-20 18:32S 42°53' E 147°20'0 0.0
2014-Oct-20 17:29S 42°53' E 147°20'0 0.0
2014-Oct-20 16:32S 42°53' E 147°20'0 0.0
2014-Oct-20 15:32S 42°53' E 147°20'0 0.0
2014-Oct-20 14:32S 42°53' E 147°20'0 0.0
2014-Oct-20 13:32S 42°53' E 147°20'0 0.0
2014-Oct-20 12:33S 42°53' E 147°20'0 0.0
2014-Oct-20 11:33S 42°53' E 147°20'0 0.0
2014-Oct-20 10:32S 42°53' E 147°20'0 0.0
2014-Oct-20 09:30S 42°53' E 147°20'0 0.0
2014-Oct-20 08:29S 42°53' E 147°20'0 0.0
2014-Oct-20 07:33S 42°53' E 147°20'0 0.0
2014-Oct-20 06:32S 42°53' E 147°20'0 0.0
2014-Oct-20 05:32S 42°53' E 147°20'0 0.0
2014-Oct-20 04:26S 42°53' E 147°20'0 0.0
2014-Oct-20 03:32S 42°53' E 147°20'0 0.0
2014-Oct-20 02:29S 42°53' E 147°20'0 0.0
2014-Oct-20 01:32S 42°53' E 147°20'0 0.0
2014-Oct-20 00:32S 42°53' E 147°20'0 0.0
2014-Oct-19 23:32S 42°53' E 147°20'0 0.0
2014-Oct-19 22:33S 42°53' E 147°20'0 0.0
2014-Oct-19 21:33S 42°53' E 147°20'0 0.0
2014-Oct-19 20:30S 42°53' E 147°20'0 0.0
2014-Oct-19 19:33S 42°53' E 147°20'0 0.0
2014-Oct-19 18:33S 42°53' E 147°20'0 0.0
2014-Oct-19 17:33S 42°53' E 147°20'0 0.0
2014-Oct-19 16:18S 42°53' E 147°20'0 0.0
2014-Oct-19 15:33S 42°53' E 147°20'0 0.0
2014-Oct-19 14:33S 42°53' E 147°20'0 0.0
2014-Oct-19 13:33S 42°53' E 147°20'0 0.0
2014-Oct-19 12:29S 42°53' E 147°20'0 0.0
2014-Oct-19 11:32S 42°53' E 147°20'0 0.0
2014-Oct-19 10:27S 42°53' E 147°20'0 0.0
2014-Oct-19 09:32S 42°53' E 147°20'0 0.0
2014-Oct-19 08:32S 42°53' E 147°20'0 0.0
2014-Oct-19 07:32S 42°53' E 147°20'0 0.0
2014-Oct-19 06:29S 42°53' E 147°20'0 0.0
2014-Oct-19 05:32S 42°53' E 147°20'0 0.0
2014-Oct-19 04:32S 42°53' E 147°20'0 0.0
2014-Oct-19 03:32S 42°53' E 147°20'0 0.0
2014-Oct-19 02:33S 42°53' E 147°20'0 0.0
2014-Oct-19 01:33S 42°53' E 147°20'0 0.0
2014-Oct-19 00:31S 42°53' E 147°20'0 0.0
2014-Oct-18 23:32S 42°53' E 147°20'0 0.0
2014-Oct-18 22:29S 42°53' E 147°20'0 0.0
2014-Oct-18 21:29S 42°53' E 147°20'0 0.0
2014-Oct-18 20:26S 42°53' E 147°20'0 0.0
2014-Oct-18 19:29S 42°53' E 147°20'0 0.0
2014-Oct-18 18:26S 42°53' E 147°20'0 0.0
2014-Oct-18 17:32S 42°53' E 147°20'0 0.0
2014-Oct-18 16:32S 42°53' E 147°20'0 0.0
2014-Oct-18 15:33S 42°53' E 147°20'0 0.0
2014-Oct-18 14:32S 42°53' E 147°20'0 0.0
2014-Oct-18 13:32S 42°53' E 147°20'0 0.0
2014-Oct-18 12:32S 42°53' E 147°20'0 0.0
2014-Oct-18 11:32S 42°53' E 147°20'0 0.0
2014-Oct-18 10:27S 42°53' E 147°20'0 0.0
2014-Oct-18 09:33S 42°53' E 147°20'0 0.0
2014-Oct-18 08:32S 42°53' E 147°20'0 0.0
2014-Oct-18 07:32S 42°53' E 147°20'0 0.0
2014-Oct-18 06:32S 42°53' E 147°20'0 0.0
2014-Oct-18 05:32S 42°53' E 147°20'0 0.0
2014-Oct-18 04:32S 42°53' E 147°20'0 0.0
2014-Oct-18 03:32S 42°53' E 147°20'0 0.0
2014-Oct-18 02:33S 42°53' E 147°20'0 0.0
2014-Oct-18 01:32S 42°53' E 147°20'0 0.0
2014-Oct-18 00:32S 42°53' E 147°20'0 0.0
2014-Oct-17 23:32S 42°53' E 147°20'0 0.0
2014-Oct-17 22:32S 42°53' E 147°20'0 0.0
2014-Oct-17 21:32S 42°53' E 147°20'0 0.0
2014-Oct-17 20:32S 42°53' E 147°20'0 0.0
2014-Oct-17 19:32S 42°53' E 147°20'0 0.0
2014-Oct-17 18:32S 42°53' E 147°20'0 0.0
2014-Oct-17 17:32S 42°53' E 147°20'0 0.0
2014-Oct-17 16:33S 42°53' E 147°20'0 0.0
2014-Oct-17 15:32S 42°53' E 147°20'0 0.0
2014-Oct-17 14:32S 42°53' E 147°20'0 0.0
2014-Oct-17 13:33S 42°53' E 147°20'0 0.0
2014-Oct-17 12:32S 42°53' E 147°20'0 0.0
2014-Oct-17 11:33S 42°53' E 147°20'0 0.0
2014-Oct-17 10:29S 42°53' E 147°20'0 0.0
2014-Oct-17 09:33S 42°53' E 147°20'0 0.0
2014-Oct-17 08:32S 42°53' E 147°20'0 0.0
2014-Oct-17 07:32S 42°53' E 147°20'0 0.0
2014-Oct-17 06:33S 42°53' E 147°20'0 0.0
2014-Oct-17 05:33S 42°53' E 147°20'0 0.0
2014-Oct-17 04:32S 42°53' E 147°20'0 0.0
2014-Oct-17 03:32S 42°53' E 147°20'0 0.0
2014-Oct-17 02:33S 42°53' E 147°20'0 0.0
2014-Oct-17 01:32S 42°53' E 147°20'0 0.0
2014-Oct-17 00:32S 42°53' E 147°20'0 0.0
2014-Oct-16 23:32S 42°53' E 147°20'0 0.0
2014-Oct-16 22:32S 42°53' E 147°20'0 0.0
2014-Oct-16 21:29S 42°53' E 147°20'0 0.0
2014-Oct-16 20:32S 42°53' E 147°20'0 0.0
2014-Oct-16 19:32S 42°53' E 147°20'0 0.0
2014-Oct-16 18:32S 42°53' E 147°20'0 0.0
2014-Oct-16 17:32S 42°53' E 147°20'0 0.0
2014-Oct-16 16:32S 42°53' E 147°20'0 0.0
2014-Oct-16 15:32S 42°53' E 147°20'0 0.0
2014-Oct-16 14:32S 42°53' E 147°20'0 0.0
2014-Oct-16 13:29S 42°53' E 147°20'0 0.0
2014-Oct-16 12:32S 42°53' E 147°20'0 0.0
2014-Oct-16 11:33S 42°53' E 147°20'0 0.0
2014-Oct-16 10:32S 42°53' E 147°20'0 0.0
2014-Oct-16 09:27S 42°53' E 147°20'0 0.0
2014-Oct-16 08:27S 42°53' E 147°20'0 0.0
2014-Oct-16 07:32S 42°53' E 147°20'1 1.5
2014-Oct-16 06:34S 42°54' E 147°22'1211.8
2014-Oct-16 05:32S 43°05' E 147°26'1211.6
2014-Oct-16 04:32S 43°12' E 147°39'10 9.9
2014-Oct-16 03:33S 43°16' E 147°51'8 8.4
2014-Oct-16 02:33S 43°16' E 148°03'9 8.8
2014-Oct-16 01:34S 43°16' E 148°15'10 9.3
2014-Oct-16 00:32S 43°16' E 148°28'8 8.3
2014-Oct-15 23:32S 43°16' E 148°39'1 0.6
2014-Oct-15 22:33S 43°17' E 148°39'0 0.3
2014-Oct-15 21:33S 43°17' E 148°38'1 0.6
2014-Oct-15 20:28S 43°16' E 148°38'2 1.3
2014-Oct-15 19:07S 43°15' E 148°36'2 2.4
2014-Oct-15 18:25S 43°15' E 148°34'7 7.6
2014-Oct-15 17:28S 43°14' E 148°43'6 5.3
2014-Oct-15 16:18S 43°13' E 148°52'1613.8
2014-Oct-15 15:10S 43°15' E 148°30'20 7.4
2014-Oct-15 12:26S 43°16' E 148°03'  
Track history (hours):
 
Tides and Currents Weather Stations Pressure Air Temp Water Temp Dewpoint Dewpoint Depression Visibility Wind Speed Wind Dir Waves Ship Positions

Oceanographic research ship Aurora Australis (Australia)

Detailed information on ship capabilities available from University of Delaware's Ocean Information Center.

Last reported at 2014-Oct-25 12:00 UTC. Time now 2014-Oct-25 23:40 UTC.
Position S 49°36' E 132°30'.

Length 94.9 m; beam 20.3 m; draft 7.9 m.

Type: Cargo ship. MMSI: 503043000.

Wind from 350 at 24 knots

Barometer 1009.9 mb
Air temperature 8.3 ° C
Visibility: greater than 27.0 NM
Dewpoint 5.6 ° C
Water temperature 8.1 ° C

Date/timePositionNaut miles runAvg speedWind from/ knotsBaromVisibWave heightAir tempDewpointWater temp
2014-Oct-25 12:00S 49°36' E 132°30'30 9.8 350 / 241009.927.0 8.3 5.6 8.1
2014-Oct-25 09:00S 49°18' E 133°06'9010.0 350 / 181012.427.0 0.5 8.7 5.1 8.6
2014-Oct-25 00:00S 48°18' E 134°48'111 9.2 260 / 171016.127.0 5.0 8.1-0.0 8.8
2014-Oct-24 12:00S 47°12' E 137°00'27 9.1 250 / 191012.827.0 0.5 8.2 2.5 8.8
2014-Oct-24 09:00S 46°54' E 137°30'27 9.1 330 / 331010.027.0 0.5 7.6 2.7 8.9
2014-Oct-24 06:00S 46°36' E 138°00'19410.8 280 / 211005.1 2.2 0.510.2 9.8 9.7
2014-Oct-23 12:00S 45°06' E 142°06'21410.4 050 / 131022.127.0 0.5 9.9 6.412.3
2014-Oct-22 15:27S 43°46' E 146°45'23 7.9
2014-Oct-22 12:33S 43°37' E 147°14'14 9.4
2014-Oct-22 11:06S 43°26' E 147°24'610.4
2014-Oct-22 10:32S 43°20' E 147°27'1010.0
2014-Oct-22 09:32S 43°10' E 147°28'1110.8
2014-Oct-22 08:33S 43°00' E 147°23'8 7.7
2014-Oct-22 07:33S 42°53' E 147°20'0 0.0
2014-Oct-22 06:31S 42°53' E 147°20'0 0.0
2014-Oct-22 05:28S 42°53' E 147°20'0 0.0
2014-Oct-22 04:31S 42°53' E 147°20'0 0.0
2014-Oct-22 03:31S 42°53' E 147°20'0 0.0
2014-Oct-22 02:31S 42°53' E 147°20'0 0.0
2014-Oct-22 01:31S 42°53' E 147°20'0 0.0
2014-Oct-22 00:31S 42°53' E 147°20'0 0.0
2014-Oct-21 23:31S 42°53' E 147°20'2 2.3
2014-Oct-21 22:33S 42°51' E 147°20'0 0.0
2014-Oct-21 21:33S 42°51' E 147°20'0 0.0
2014-Oct-21 20:33S 42°51' E 147°20'0 0.0
2014-Oct-21 19:33S 42°51' E 147°20'0 0.0
2014-Oct-21 18:33S 42°51' E 147°20'0 0.0
2014-Oct-21 17:33S 42°51' E 147°20'0 0.0
2014-Oct-21 16:33S 42°51' E 147°20'0 0.0
2014-Oct-21 15:33S 42°51' E 147°20'0 0.0
2014-Oct-21 14:33S 42°51' E 147°20'0 0.0
2014-Oct-21 13:33S 42°51' E 147°20'0 0.0
2014-Oct-21 12:33S 42°51' E 147°20'0 0.0
2014-Oct-21 11:33S 42°51' E 147°20'0 0.0
2014-Oct-21 10:33S 42°51' E 147°20'0 0.0
2014-Oct-21 09:33S 42°51' E 147°20'0 0.0
2014-Oct-21 08:29S 42°51' E 147°20'2 2.2
2014-Oct-21 07:32S 42°53' E 147°21'0 0.1
2014-Oct-21 06:32S 42°53' E 147°20'0 0.0
2014-Oct-21 05:32S 42°53' E 147°20'0 0.0
2014-Oct-21 04:32S 42°53' E 147°20'0 0.0
2014-Oct-21 03:32S 42°53' E 147°20'0 0.0
2014-Oct-21 02:32S 42°53' E 147°20'0 0.0
2014-Oct-21 01:32S 42°53' E 147°20'0 0.0
2014-Oct-21 00:32S 42°53' E 147°20'0 0.0
2014-Oct-20 23:31S 42°53' E 147°20'0 0.0
2014-Oct-20 22:32S 42°53' E 147°20'0 0.0
2014-Oct-20 21:32S 42°53' E 147°20'0 0.0
2014-Oct-20 20:32S 42°53' E 147°20'0 0.0
2014-Oct-20 19:26S 42°53' E 147°20'0 0.0
2014-Oct-20 18:32S 42°53' E 147°20'0 0.0
2014-Oct-20 17:29S 42°53' E 147°20'0 0.0
2014-Oct-20 16:32S 42°53' E 147°20'0 0.0
2014-Oct-20 15:32S 42°53' E 147°20'0 0.0
2014-Oct-20 14:32S 42°53' E 147°20'0 0.0
2014-Oct-20 13:32S 42°53' E 147°20'0 0.0
2014-Oct-20 12:33S 42°53' E 147°20'0 0.0
2014-Oct-20 11:33S 42°53' E 147°20'0 0.0
2014-Oct-20 10:32S 42°53' E 147°20'0 0.0
2014-Oct-20 09:30S 42°53' E 147°20'0 0.0
2014-Oct-20 08:29S 42°53' E 147°20'0 0.0
2014-Oct-20 07:33S 42°53' E 147°20'0 0.0
2014-Oct-20 06:32S 42°53' E 147°20'0 0.0
2014-Oct-20 05:32S 42°53' E 147°20'0 0.0
2014-Oct-20 04:26S 42°53' E 147°20'0 0.0
2014-Oct-20 03:32S 42°53' E 147°20'0 0.0
2014-Oct-20 02:29S 42°53' E 147°20'0 0.0
2014-Oct-20 01:32S 42°53' E 147°20'0 0.0
2014-Oct-20 00:32S 42°53' E 147°20'0 0.0
2014-Oct-19 23:32S 42°53' E 147°20'0 0.0
2014-Oct-19 22:33S 42°53' E 147°20'0 0.0
2014-Oct-19 21:33S 42°53' E 147°20'0 0.0
2014-Oct-19 20:30S 42°53' E 147°20'0 0.0
2014-Oct-19 19:33S 42°53' E 147°20'0 0.0
2014-Oct-19 18:33S 42°53' E 147°20'0 0.0
2014-Oct-19 17:33S 42°53' E 147°20'0 0.0
2014-Oct-19 16:18S 42°53' E 147°20'0 0.0
2014-Oct-19 15:33S 42°53' E 147°20'0 0.0
2014-Oct-19 14:33S 42°53' E 147°20'0 0.0
2014-Oct-19 13:33S 42°53' E 147°20'0 0.0
2014-Oct-19 12:29S 42°53' E 147°20'0 0.0
2014-Oct-19 11:32S 42°53' E 147°20'0 0.0
2014-Oct-19 10:27S 42°53' E 147°20'0 0.0
2014-Oct-19 09:32S 42°53' E 147°20'0 0.0
2014-Oct-19 08:32S 42°53' E 147°20'0 0.0
2014-Oct-19 07:32S 42°53' E 147°20'0 0.0
2014-Oct-19 06:29S 42°53' E 147°20'0 0.0
2014-Oct-19 05:32S 42°53' E 147°20'0 0.0
2014-Oct-19 04:32S 42°53' E 147°20'0 0.0
2014-Oct-19 03:32S 42°53' E 147°20'0 0.0
2014-Oct-19 02:33S 42°53' E 147°20'0 0.0
2014-Oct-19 01:33S 42°53' E 147°20'0 0.0
2014-Oct-19 00:31S 42°53' E 147°20'0 0.0
2014-Oct-18 23:32S 42°53' E 147°20'0 0.0
2014-Oct-18 22:29S 42°53' E 147°20'0 0.0
2014-Oct-18 21:29S 42°53' E 147°20'0 0.0
2014-Oct-18 20:26S 42°53' E 147°20'0 0.0
2014-Oct-18 19:29S 42°53' E 147°20'0 0.0
2014-Oct-18 18:26S 42°53' E 147°20'0 0.0
2014-Oct-18 17:32S 42°53' E 147°20'0 0.0
2014-Oct-18 16:32S 42°53' E 147°20'0 0.0
2014-Oct-18 15:33S 42°53' E 147°20'0 0.0
2014-Oct-18 14:32S 42°53' E 147°20'0 0.0
2014-Oct-18 13:32S 42°53' E 147°20'0 0.0
2014-Oct-18 12:32S 42°53' E 147°20'0 0.0
2014-Oct-18 11:32S 42°53' E 147°20'0 0.0
2014-Oct-18 10:27S 42°53' E 147°20'0 0.0
2014-Oct-18 09:33S 42°53' E 147°20'0 0.0
2014-Oct-18 08:32S 42°53' E 147°20'0 0.0
2014-Oct-18 07:32S 42°53' E 147°20'0 0.0
2014-Oct-18 06:32S 42°53' E 147°20'0 0.0
2014-Oct-18 05:32S 42°53' E 147°20'0 0.0
2014-Oct-18 04:32S 42°53' E 147°20'0 0.0
2014-Oct-18 03:32S 42°53' E 147°20'0 0.0
2014-Oct-18 02:33S 42°53' E 147°20'0 0.0
2014-Oct-18 01:32S 42°53' E 147°20'0 0.0
2014-Oct-18 00:32S 42°53' E 147°20'0 0.0
2014-Oct-17 23:32S 42°53' E 147°20'0 0.0
2014-Oct-17 22:32S 42°53' E 147°20'0 0.0
2014-Oct-17 21:32S 42°53' E 147°20'0 0.0
2014-Oct-17 20:32S 42°53' E 147°20'0 0.0
2014-Oct-17 19:32S 42°53' E 147°20'0 0.0
2014-Oct-17 18:32S 42°53' E 147°20'0 0.0
2014-Oct-17 17:32S 42°53' E 147°20'0 0.0
2014-Oct-17 16:33S 42°53' E 147°20'0 0.0
2014-Oct-17 15:32S 42°53' E 147°20'0 0.0
2014-Oct-17 14:32S 42°53' E 147°20'0 0.0
2014-Oct-17 13:33S 42°53' E 147°20'0 0.0
2014-Oct-17 12:32S 42°53' E 147°20'0 0.0
2014-Oct-17 11:33S 42°53' E 147°20'0 0.0
2014-Oct-17 10:29S 42°53' E 147°20'0 0.0
2014-Oct-17 09:33S 42°53' E 147°20'0 0.0
2014-Oct-17 08:32S 42°53' E 147°20'0 0.0
2014-Oct-17 07:32S 42°53' E 147°20'0 0.0
2014-Oct-17 06:33S 42°53' E 147°20'0 0.0
2014-Oct-17 05:33S 42°53' E 147°20'0 0.0
2014-Oct-17 04:32S 42°53' E 147°20'0 0.0
2014-Oct-17 03:32S 42°53' E 147°20'0 0.0
2014-Oct-17 02:33S 42°53' E 147°20'0 0.0
2014-Oct-17 01:32S 42°53' E 147°20'0 0.0
2014-Oct-17 00:32S 42°53' E 147°20'0 0.0
2014-Oct-16 23:32S 42°53' E 147°20'0 0.0
2014-Oct-16 22:32S 42°53' E 147°20'0 0.0
2014-Oct-16 21:29S 42°53' E 147°20'0 0.0
2014-Oct-16 20:32S 42°53' E 147°20'0 0.0
2014-Oct-16 19:32S 42°53' E 147°20'0 0.0
2014-Oct-16 18:32S 42°53' E 147°20'0 0.0
2014-Oct-16 17:32S 42°53' E 147°20'0 0.0
2014-Oct-16 16:32S 42°53' E 147°20'0 0.0
2014-Oct-16 15:32S 42°53' E 147°20'0 0.0
2014-Oct-16 14:32S 42°53' E 147°20'0 0.0
2014-Oct-16 13:29S 42°53' E 147°20'0 0.0
2014-Oct-16 12:32S 42°53' E 147°20'0 0.0
2014-Oct-16 11:33S 42°53' E 147°20'0 0.0
2014-Oct-16 10:32S 42°53' E 147°20'0 0.0
2014-Oct-16 09:27S 42°53' E 147°20'0 0.0
2014-Oct-16 08:27S 42°53' E 147°20'0 0.0
2014-Oct-16 07:32S 42°53' E 147°20'1 1.5
2014-Oct-16 06:34S 42°54' E 147°22'1211.8
2014-Oct-16 05:32S 43°05' E 147°26'1211.6
2014-Oct-16 04:32S 43°12' E 147°39'10 9.9
2014-Oct-16 03:33S 43°16' E 147°51'8 8.4
2014-Oct-16 02:33S 43°16' E 148°03'9 8.8
2014-Oct-16 01:34S 43°16' E 148°15'10 9.3
2014-Oct-16 00:32S 43°16' E 148°28'8 8.3
2014-Oct-15 23:32S 43°16' E 148°39'1 0.6
2014-Oct-15 22:33S 43°17' E 148°39'0 0.3
2014-Oct-15 21:33S 43°17' E 148°38'1 0.6
2014-Oct-15 20:28S 43°16' E 148°38'2 1.3
2014-Oct-15 19:07S 43°15' E 148°36'2 2.4
2014-Oct-15 18:25S 43°15' E 148°34'7 7.6
2014-Oct-15 17:28S 43°14' E 148°43'6 5.3
2014-Oct-15 16:18S 43°13' E 148°52'1613.8
2014-Oct-15 15:10S 43°15' E 148°30'20 7.4
2014-Oct-15 12:26S 43°16' E 148°03'  

Dump ship's entire track history